ADDS METAR Data INFO
IDs: Format: Raw Decoded Include TAF

Data at: 0513 UTC 22 Jul 2017

KMFE 220453Z AUTO 14013G19KT 10SM CLR 29/24 A2996 RMK AO2 SLP142 T02890239
KMFE 220353Z 15011KT 10SM CLR 29/23 A2996 RMK AO2 SLP142 T02940228
KMFE 220253Z 14012KT 10SM CLR 30/23 A2994 RMK AO2 SLP136 T03000228 53014
KMFE 220153Z 13016KT 10SM CLR 31/22 A2992 RMK AO2 SLP130 T03110217
KMFE 220053Z 13018KT 10SM CLR 33/22 A2991 RMK AO2 SLP125 T03330217
KMFE 212353Z 13019KT 10SM CLR 36/21 A2990 RMK AO2 SLP122 T03560211 10394 20356 56007
KMFE 212253Z 13013G24KT 10SM FEW060 37/21 A2990 RMK AO2 PK WND 12026/2241 SLP122 T03670206
KMFE 212153Z 14017G22KT 10SM FEW065 38/19 A2990 RMK AO2 SLP122 T03780194
KMFE 212053Z 13018G24KT 10SM BKN065 39/19 A2992 RMK AO2 PK WND 13026/2002 SLP128 T03890194 58023
KMFE 211953Z 13013G22KT 10SM CLR 38/19 A2995 RMK AO2 PK WND 13027/1937 SLP138 T03830194
KMFE 211853Z 12017G22KT 10SM FEW060 38/21 A2997 RMK AO2 SLP145 T03830206
KMFE 211753Z 12010G22KT 10SM CLR 37/20 A2999 RMK AO2 SLP151 T03670200 10372 20261 58008
KMFE 211653Z 14015KT 10SM CLR 36/20 A3000 RMK AO2 SLP156 T03610200
KMFE 211553Z 16013G20KT 10SM CLR 34/21 A3000 RMK AO2 SLP158 T03440206
KMFE 211453Z 16013KT 10SM CLR 32/22 A3001 RMK AO2 SLP160 T03170222 53010
KMFE 211353Z 16013KT 10SM CLR 29/23 A3000 RMK AO2 SLP157 T02890228
KMFE 211253Z 15007KT 10SM CLR 27/24 A2999 RMK AO2 SLP153 T02720239
KMFE 211153Z 14006KT 10SM CLR 26/24 A2998 RMK AO2 SLP150 T02610239 10289 20261 53002
KMFE 211053Z 14006KT 10SM CLR 27/24 A2996 RMK AO2 SLP144 T02670239
KMFE 210953Z AUTO 15007KT 10SM CLR 27/24 A2996 RMK AO2 SLP144 T02720244
KMFE 210853Z AUTO 15008KT 10SM CLR 27/24 A2998 RMK AO2 SLP147 T02720244 58022
KMFE 210753Z AUTO 15009KT 10SM CLR 28/24 A3000 RMK AO2 SLP157 T02780244
KMFE 210700Z AUTO 15010KT 10SM SCT018 28/24 A3002 RMK AO2 T02830244
KMFE 210653Z AUTO 15009KT 10SM BKN016 28/24 A3002 RMK AO2 SLP163 T02830244
KMFE 210553Z AUTO 15012KT 10SM BKN018 29/24 A3004 RMK AO2 SLP169 T02890244 10356 20283 404000272 50005
KMFE 210550Z AUTO 14009KT 10SM BKN018 29/24 A3004 RMK AO2
KMFE 210453Z AUTO 14010KT 10SM FEW018 29/24 A3004 RMK AO2 SLP172 T02890239
KMFE 210353Z 14014KT 10SM CLR 29/24 A3003 RMK AO2 SLP165 T02940239
KMFE 210253Z 13015KT 10SM CLR 30/23 A3000 RMK AO2 SLP157 T03000228 53017
KMFE 210153Z 13018G22KT 10SM CLR 32/22 A2998 RMK AO2 SLP149 T03170217
KMFE 210053Z 13020KT 10SM CLR 33/21 A2996 RMK AO2 SLP143 T03330211
KMFE 202353Z 13019KT 10SM CLR 36/19 A2995 RMK AO2 SLP140 T03560194 10400 20356 56013
KMFE 202253Z 13020G24KT 10SM CLR 38/18 A2995 RMK AO2 PK WND 12027/2217 SLP139 T03780178
KMFE 202153Z 13019G25KT 10SM CLR 39/19 A2997 RMK AO2 PK WND 14027/2119 SLP145 T03890189
KMFE 202053Z 12016G25KT 10SM SCT070 SCT085 38/21 A2999 RMK AO2 SLP152 T03780206 56027
KMFE 201953Z 17014G20KT 10SM FEW070 39/19 A3001 RMK AO2 SLP160 T03890194
KMFE 201853Z 13011G19KT 10SM CLR 38/20 A3004 RMK AO2 SLP169 T03830200
KMFE 201753Z 14015G24KT 10SM CLR 37/20 A3007 RMK AO2 SLP179 T03720200 10378 20272 58011